Terminal Aerodrome Forecast
Issued by NWS Wakefield, VA

Home | Current Version | Previous Version | Text Only | Print | Product List | Glossary On
Versions: 1 2 3 4 5 6 7 8 9 10 11 12
000
FTUS41 KAKQ 291120
TAFRIC
TAF
KRIC 291120Z 2912/3012 20008KT P6SM SCT250
     FM291600 21012G18KT P6SM SCT060
     FM300000 19007KT P6SM SKC=

USA.gov is the U.S. government's official web portal to all federal, state and local government web resources and services.